Ogden, IL (61859)

8:59 PM CDT on August 28, 2016 (GMT -0500)
APRSWXNET | | Change Station

Elev 658 ft 40.10 °N, 87.90 °W | Updated 2 days ago

Partly Cloudy
Partly Cloudy
72 °F
Feels Like 72 °F
N
3
Wind Variable Wind from NE
Gusts mph

Today
High -- | Low -- °F
--% Chance of Precip.
Yesterday
High -- | Low -- °F
Precip. -- in
Pressure 30.16 in
Visibility 10.0 miles
Clouds Clear
Dew Point 70 °F
Humidity 95%
Rainfall in
Snow Depth Not available.
6:16 AM 7:28 PM
Waning Crescent, 12% visible
METAR KTIP 290155Z AUTO 04003KT 10SM CLR 25/24 A3016 RMK AO2 T02540236
Pressure 30.16 in
Visibility 10.0 miles
Clouds Clear
Dew Point 70 °F
Humidity 95%
Rainfall in
Snow Depth Not available.
6:16 AM 7:28 PM
Waning Crescent, 12% visible
METAR KTIP 290155Z AUTO 04003KT 10SM CLR 25/24 A3016 RMK AO2 T02540236

10-Day Weather Forecast

Almanac

Astronomy

Aug. 28, 2016 Rise Set
Actual Time
Civil Twilight
Nautical Twilight
Astronomical Twilight
Moon
Length of Visible Light
Length of Day
Tomorrow will be .
, % of the Moon is Illuminated

Today's Extremes

State Highs State Lows

Community

WunderPhotos

Upload Photos

1,935,757 photos uploaded!

WunderBlog® & News

Nearby

Air Quality

  Air Quality AQ Index Pollutant
Not available.

Snow Depth

Station Depth Elevation

Earthquake Activity

City Distance Mag. Time & Date
Minimum magnitude displayed is 2.5.

Coastal Water Temperatures

Place Temperature

Stations

Nearby Weather Stations

Station Location Temp. Windchill Dew Point Humidity Wind Precip. Elev Updated Type
                   

Watches & Warnings

There are currently no watches in effect.